Time,TemperatureF,DewpointF,PressureIn,WindDirection,WindDirectionDegrees,WindSpeedMPH,WindSpeedGustMPH,Humidity,HourlyPrecipIn,Conditions,Clouds,dailyrainin,SoftwareType,DateUTC
2013-02-03 00:03:00,46.0,33.7,29.57,North,360,2.3,2.3,62,0.00,CLR,,0.00,WeatherDisplay:10.37,2013-02-03 06:03:00,
2013-02-03 00:08:00,46.0,33.7,29.57,NNW,337,0.0,0.0,62,0.00,CLR,,0.00,WeatherDisplay:10.37,2013-02-03 06:08:00,
2013-02-03 00:13:00,46.0,33.7,29.57,North,360,2.3,2.3,62,0.00,CLR,,0.00,WeatherDisplay:10.37,2013-02-03 06:13:00,
2013-02-03 00:18:00,46.0,34.1,29.57,WNW,292,3.5,3.5,63,0.00,CLR,,0.00,WeatherDisplay:10.37,2013-02-03 06:18:00,
2013-02-03 00:23:00,46.0,34.1,29.57,NNW,337,3.5,3.5,63,0.00,CLR,,0.00,WeatherDisplay:10.37,2013-02-03 06:23:00,
2013-02-03 00:28:00,46.0,34.1,29.57,North,360,2.3,2.3,63,0.00,CLR,,0.00,WeatherDisplay:10.37,2013-02-03 06:28:00,
2013-02-03 00:33:00,46.0,34.5,29.57,North,360,3.5,3.5,64,0.00,CLR,,0.00,WeatherDisplay:10.37,2013-02-03 06:33:00,
2013-02-03 00:38:00,46.0,34.5,29.57,West,270,2.3,2.3,64,0.00,CLR,,0.00,WeatherDisplay:10.37,2013-02-03 06:38:00,
2013-02-03 00:43:00,46.0,34.1,29.57,NNW,337,1.2,1.2,63,0.00,CLR,,0.00,WeatherDisplay:10.37,2013-02-03 06:43:00,
2013-02-03 00:48:00,46.0,33.7,29.56,North,360,4.0,4.0,62,0.00,CLR,,0.00,WeatherDisplay:10.37,2013-02-03 06:48:00,
2013-02-03 00:53:00,46.0,33.7,29.56,North,360,1.2,1.2,62,0.00,CLR,,0.00,WeatherDisplay:10.37,2013-02-03 06:53:00,
2013-02-03 00:58:00,45.0,33.2,29.56,NNW,337,4.0,4.0,63,0.00,CLR,,0.00,WeatherDisplay:10.37,2013-02-03 06:58:00,
2013-02-03 01:03:00,45.0,33.2,29.57,NNE,22,1.2,0.0,63,0.00,CLR,,0.00,WeatherDisplay:10.37,2013-02-03 07:03:00,
2013-02-03 01:08:00,45.0,33.2,29.56,NW,315,2.0,2.0,63,0.00,CLR,,0.00,WeatherDisplay:10.37,2013-02-03 07:08:00,
2013-02-03 01:13:00,45.0,32.8,29.57,NW,315,2.3,2.3,62,0.00,CLR,,0.00,WeatherDisplay:10.37,2013-02-03 07:13:00,
2013-02-03 01:18:00,45.0,33.2,29.56,NW,315,2.3,2.3,63,0.00,CLR,,0.00,WeatherDisplay:10.37,2013-02-03 07:18:00,
2013-02-03 01:23:00,45.0,33.2,29.57,NW,315,2.3,2.3,63,0.00,CLR,,0.00,WeatherDisplay:10.37,2013-02-03 07:23:00,
2013-02-03 01:28:00,45.0,33.5,29.56,NW,315,2.3,2.3,64,0.00,CLR,,0.00,WeatherDisplay:10.37,2013-02-03 07:28:00,
2013-02-03 01:33:00,44.0,32.6,29.56,NW,315,0.0,0.0,64,0.00,CLR,,0.00,WeatherDisplay:10.37,2013-02-03 07:33:00,
2013-02-03 01:38:00,44.0,33.4,29.56,NW,315,0.0,0.0,66,0.00,CLR,,0.00,WeatherDisplay:10.37,2013-02-03 07:38:00,
2013-02-03 01:43:00,43.0,32.4,29.56,NW,315,0.0,0.0,66,0.00,CLR,,0.00,WeatherDisplay:10.37,2013-02-03 07:43:00,
2013-02-03 01:48:00,43.0,32.4,29.56,NW,315,0.0,0.0,66,0.00,CLR,,0.00,WeatherDisplay:10.37,2013-02-03 07:48:00,
2013-02-03 01:53:00,43.0,32.8,29.56,NW,315,0.0,0.0,67,0.00,CLR,,0.00,WeatherDisplay:10.37,2013-02-03 07:53:00,
2013-02-03 01:58:00,42.0,31.8,29.56,NW,315,0.0,0.0,67,0.00,CLR,,0.00,WeatherDisplay:10.37,2013-02-03 07:58:00,
2013-02-03 02:03:00,43.0,32.8,29.56,NW,315,1.0,1.0,67,0.00,CLR,,0.00,WeatherDisplay:10.37,2013-02-03 08:03:00,
2013-02-03 02:08:00,43.0,32.8,29.56,NW,315,0.0,0.0,67,0.00,CLR,,0.00,WeatherDisplay:10.37,2013-02-03 08:08:00,
2013-02-03 02:13:00,43.0,33.5,29.56,NW,315,0.0,0.0,69,0.00,CLR,,0.00,WeatherDisplay:10.37,2013-02-03 08:13:00,
2013-02-03 02:18:00,42.0,32.9,29.56,NW,315,0.0,0.0,70,0.00,CLR,,0.00,WeatherDisplay:10.37,2013-02-03 08:18:00,
2013-02-03 02:23:00,41.0,32.0,29.56,NW,315,0.0,0.0,70,0.00,CLR,,0.00,WeatherDisplay:10.37,2013-02-03 08:23:00,
2013-02-03 02:28:00,41.0,32.3,29.56,NW,315,0.0,0.0,71,0.00,CLR,,0.00,WeatherDisplay:10.37,2013-02-03 08:28:00,
2013-02-03 02:33:00,40.0,31.4,29.55,NW,315,0.0,0.0,71,0.00,CLR,,0.00,WeatherDisplay:10.37,2013-02-03 08:33:00,
2013-02-03 02:39:00,40.0,32.0,29.55,NW,315,0.0,0.0,73,0.00,CLR,,0.00,WeatherDisplay:10.37,2013-02-03 08:39:00,
2013-02-03 02:44:00,40.0,32.0,29.55,NW,315,0.0,0.0,73,0.00,CLR,,0.00,WeatherDisplay:10.37,2013-02-03 08:44:00,
2013-02-03 02:49:00,40.0,32.0,29.55,NW,315,0.0,0.0,73,0.00,CLR,,0.00,WeatherDisplay:10.37,2013-02-03 08:49:00,
2013-02-03 02:54:00,40.0,32.4,29.55,NW,315,0.0,0.0,74,0.00,CLR,,0.00,WeatherDisplay:10.37,2013-02-03 08:54:00,
2013-02-03 02:59:00,40.0,32.0,29.55,NW,315,0.0,0.0,73,0.00,CLR,,0.00,WeatherDisplay:10.37,2013-02-03 08:59:00,
2013-02-03 03:04:00,40.0,32.7,29.55,NW,315,0.0,0.0,75,0.00,CLR,,0.00,WeatherDisplay:10.37,2013-02-03 09:04:00,
2013-02-03 03:09:00,40.0,33.0,29.55,NW,315,0.0,0.0,76,0.00,CLR,,0.00,WeatherDisplay:10.37,2013-02-03 09:09:00,
2013-02-03 03:14:00,40.0,34.6,29.54,NW,315,0.0,0.0,81,0.00,CLR,,0.00,WeatherDisplay:10.37,2013-02-03 09:14:00,
2013-02-03 03:19:00,40.0,34.9,29.54,NW,315,0.0,0.0,82,0.00,CLR,,0.00,WeatherDisplay:10.37,2013-02-03 09:19:00,
2013-02-03 03:24:00,41.0,35.6,29.54,NW,315,0.0,0.0,81,0.00,CLR,,0.00,WeatherDisplay:10.37,2013-02-03 09:24:00,
2013-02-03 03:29:00,41.0,35.3,29.54,NW,315,0.0,0.0,80,0.00,CLR,,0.00,WeatherDisplay:10.37,2013-02-03 09:29:00,
2013-02-03 03:34:00,40.0,34.6,29.54,NW,315,0.0,0.0,81,0.00,CLR,,0.00,WeatherDisplay:10.37,2013-02-03 09:34:00,
2013-02-03 03:39:00,41.0,37.1,29.54,NW,315,1.2,1.2,86,0.00,CLR,,0.00,WeatherDisplay:10.37,2013-02-03 09:39:00,
2013-02-03 03:44:00,41.0,36.8,29.54,NW,315,2.3,2.3,85,0.00,CLR,,0.00,WeatherDisplay:10.37,2013-02-03 09:44:00,
2013-02-03 03:49:00,41.0,35.6,29.54,WNW,292,2.3,2.3,81,0.00,CLR,,0.00,WeatherDisplay:10.37,2013-02-03 09:49:00,
2013-02-03 03:54:00,42.0,35.0,29.54,WNW,292,1.0,0.0,76,0.00,CLR,,0.00,WeatherDisplay:10.37,2013-02-03 09:54:00,
2013-02-03 03:59:00,42.0,34.6,29.54,WNW,292,1.2,1.2,75,0.00,CLR,,0.00,WeatherDisplay:10.37,2013-02-03 09:59:00,
2013-02-03 04:04:00,42.0,34.6,29.54,WNW,292,2.3,2.3,75,0.00,CLR,,0.00,WeatherDisplay:10.37,2013-02-03 10:04:00,
2013-02-03 04:09:00,42.0,34.3,29.54,WNW,292,0.0,0.0,74,0.00,CLR,,0.00,WeatherDisplay:10.37,2013-02-03 10:09:00,
2013-02-03 04:14:00,42.0,34.0,29.54,WNW,292,0.0,0.0,73,0.00,CLR,,0.00,WeatherDisplay:10.37,2013-02-03 10:14:00,
2013-02-03 04:19:00,41.0,33.0,29.54,WNW,292,0.0,0.0,73,0.00,CLR,,0.00,WeatherDisplay:10.37,2013-02-03 10:19:00,
2013-02-03 04:24:00,41.0,33.0,29.53,WNW,292,0.0,0.0,73,0.00,CLR,,0.00,WeatherDisplay:10.37,2013-02-03 10:24:00,
2013-02-03 04:29:00,40.0,32.7,29.53,WNW,292,0.0,0.0,75,0.00,CLR,,0.00,WeatherDisplay:10.37,2013-02-03 10:29:00,
2013-02-03 04:34:00,40.0,32.4,29.53,WNW,292,0.0,0.0,74,0.00,CLR,,0.00,WeatherDisplay:10.37,2013-02-03 10:34:00,
2013-02-03 04:39:00,40.0,33.7,29.53,WNW,292,0.0,0.0,78,0.00,CLR,,0.00,WeatherDisplay:10.37,2013-02-03 10:39:00,
2013-02-03 04:44:00,40.0,34.0,29.53,WNW,292,0.0,0.0,79,0.00,CLR,,0.00,WeatherDisplay:10.37,2013-02-03 10:44:00,
2013-02-03 04:49:00,40.0,34.6,29.53,WNW,292,1.0,1.0,81,0.00,CLR,,0.00,WeatherDisplay:10.37,2013-02-03 10:49:00,
2013-02-03 04:54:00,40.0,34.6,29.53,WNW,292,0.0,0.0,81,0.00,CLR,,0.00,WeatherDisplay:10.37,2013-02-03 10:54:00,
2013-02-03 04:59:00,40.0,34.6,29.52,WNW,292,0.0,0.0,81,0.00,CLR,,0.00,WeatherDisplay:10.37,2013-02-03 10:59:00,
2013-02-03 05:04:00,40.0,34.6,29.52,WNW,292,0.0,0.0,81,0.00,CLR,,0.00,WeatherDisplay:10.37,2013-02-03 11:04:00,
2013-02-03 05:09:00,40.0,34.6,29.52,WNW,292,0.0,0.0,81,0.00,CLR,,0.00,WeatherDisplay:10.37,2013-02-03 11:09:00,
2013-02-03 05:14:00,40.0,34.3,29.52,WNW,292,0.0,0.0,80,0.00,CLR,,0.00,WeatherDisplay:10.37,2013-02-03 11:14:00,
2013-02-03 05:19:00,39.0,33.7,29.52,WNW,292,0.0,0.0,81,0.00,CLR,,0.00,WeatherDisplay:10.37,2013-02-03 11:19:00,
2013-02-03 05:24:00,40.0,34.6,29.52,WNW,292,0.0,0.0,81,0.00,CLR,,0.00,WeatherDisplay:10.37,2013-02-03 11:24:00,
2013-02-03 05:29:00,40.0,34.6,29.52,WNW,292,0.0,0.0,81,0.00,CLR,,0.00,WeatherDisplay:10.37,2013-02-03 11:29:00,
2013-02-03 05:34:00,41.0,35.3,29.52,WNW,292,0.0,0.0,80,0.00,CLR,,0.00,WeatherDisplay:10.37,2013-02-03 11:34:00,
2013-02-03 05:39:00,41.0,35.0,29.52,WNW,292,0.0,0.0,79,0.00,CLR,,0.00,WeatherDisplay:10.37,2013-02-03 11:39:00,
2013-02-03 05:44:00,41.0,34.7,29.52,WNW,292,2.3,2.3,78,0.00,CLR,,0.00,WeatherDisplay:10.37,2013-02-03 11:44:00,
2013-02-03 05:49:00,41.0,35.0,29.52,WNW,292,2.3,2.3,79,0.00,CLR,,0.00,WeatherDisplay:10.37,2013-02-03 11:49:00,
2013-02-03 05:54:00,41.0,34.7,29.52,WNW,292,1.2,1.2,78,0.00,CLR,,0.00,WeatherDisplay:10.37,2013-02-03 11:54:00,
2013-02-03 05:59:00,41.0,34.7,29.52,WNW,292,2.3,2.3,78,0.00,CLR,,0.00,WeatherDisplay:10.37,2013-02-03 11:59:00,
2013-02-03 06:04:00,41.0,34.7,29.52,WNW,292,1.2,1.2,78,0.00,CLR,,0.00,WeatherDisplay:10.37,2013-02-03 12:04:00,
2013-02-03 06:09:00,41.0,35.0,29.52,WNW,292,1.2,1.2,79,0.00,CLR,,0.00,WeatherDisplay:10.37,2013-02-03 12:09:00,
2013-02-03 06:14:00,40.0,34.3,29.53,WNW,292,3.5,3.5,80,0.00,CLR,,0.00,WeatherDisplay:10.37,2013-02-03 12:14:00,
2013-02-03 06:19:00,40.0,34.3,29.53,WNW,292,2.3,2.3,80,0.00,CLR,,0.00,WeatherDisplay:10.37,2013-02-03 12:19:00,
2013-02-03 06:24:00,40.0,34.6,29.53,WNW,292,1.2,1.2,81,0.00,CLR,,0.00,WeatherDisplay:10.37,2013-02-03 12:24:00,
2013-02-03 06:29:00,40.0,34.3,29.53,WNW,292,2.3,2.3,80,0.00,CLR,,0.00,WeatherDisplay:10.37,2013-02-03 12:29:00,
2013-02-03 06:34:00,41.0,35.0,29.53,NW,315,2.3,2.3,79,0.00,CLR,,0.00,WeatherDisplay:10.37,2013-02-03 12:34:00,
2013-02-03 06:39:00,41.0,34.7,29.53,NW,315,2.3,2.3,78,0.00,CLR,,0.00,WeatherDisplay:10.37,2013-02-03 12:39:00,
2013-02-03 06:44:00,41.0,34.0,29.53,NW,315,2.3,2.3,76,0.00,CLR,,0.00,WeatherDisplay:10.37,2013-02-03 12:44:00,
2013-02-03 06:49:00,40.0,33.4,29.53,NW,315,0.0,0.0,77,0.00,CLR,,0.00,WeatherDisplay:10.37,2013-02-03 12:49:00,
2013-02-03 06:54:00,40.0,33.7,29.53,NW,315,0.0,0.0,78,0.00,CLR,,0.00,WeatherDisplay:10.37,2013-02-03 12:54:00,
2013-02-03 06:59:00,40.0,34.3,29.53,NW,315,0.0,0.0,80,0.00,CLR,,0.00,WeatherDisplay:10.37,2013-02-03 12:59:00,
2013-02-03 07:04:00,39.0,33.7,29.54,NW,315,0.0,0.0,81,0.00,CLR,,0.00,WeatherDisplay:10.37,2013-02-03 13:04:00,
2013-02-03 07:09:00,39.0,34.3,29.54,NW,315,0.0,0.0,83,0.00,CLR,,0.00,WeatherDisplay:10.37,2013-02-03 13:09:00,
2013-02-03 07:14:00,39.0,34.3,29.54,NW,315,0.0,0.0,83,0.00,CLR,,0.00,WeatherDisplay:10.37,2013-02-03 13:14:00,
2013-02-03 07:19:00,39.0,34.3,29.54,NW,315,0.0,0.0,83,0.00,CLR,,0.00,WeatherDisplay:10.37,2013-02-03 13:19:00,
2013-02-03 07:24:00,38.0,33.6,29.54,NW,315,0.0,0.0,84,0.00,CLR,,0.00,WeatherDisplay:10.37,2013-02-03 13:24:00,
2013-02-03 07:29:00,38.0,33.6,29.54,NW,315,0.0,0.0,84,0.00,CLR,,0.00,WeatherDisplay:10.37,2013-02-03 13:29:00,
2013-02-03 07:35:00,39.0,34.9,29.54,NW,315,2.3,2.3,85,0.00,CLR,,0.00,WeatherDisplay:10.37,2013-02-03 13:35:00,
2013-02-03 07:39:00,39.0,34.9,29.54,NW,315,1.2,1.2,85,0.00,CLR,,0.00,WeatherDisplay:10.37,2013-02-03 13:39:00,
2013-02-03 07:45:00,39.0,34.6,29.54,NW,315,2.3,2.3,84,0.00,CLR,,0.00,WeatherDisplay:10.37,2013-02-03 13:45:00,
2013-02-03 07:50:00,40.0,35.3,29.54,NW,315,2.3,2.3,83,0.00,CLR,,0.00,WeatherDisplay:10.37,2013-02-03 13:50:00,
2013-02-03 07:55:00,40.0,34.9,29.54,NW,315,0.0,0.0,82,0.00,CLR,,0.00,WeatherDisplay:10.37,2013-02-03 13:55:00,
2013-02-03 08:00:00,41.0,36.2,29.54,NW,315,2.3,2.3,83,0.00,CLR,,0.00,WeatherDisplay:10.37,2013-02-03 14:00:00,
2013-02-03 08:05:00,41.0,36.2,29.54,NW,315,1.2,1.2,83,0.00,CLR,,0.00,WeatherDisplay:10.37,2013-02-03 14:05:00,
2013-02-03 08:10:00,41.0,35.9,29.54,NW,315,0.0,0.0,82,0.00,CLR,,0.00,WeatherDisplay:10.37,2013-02-03 14:10:00,
2013-02-03 08:15:00,42.0,36.9,29.54,NW,315,1.2,1.2,82,0.00,CLR,,0.00,WeatherDisplay:10.37,2013-02-03 14:15:00,
2013-02-03 08:20:00,42.0,36.9,29.55,NW,315,1.2,0.0,82,0.00,CLR,,0.00,WeatherDisplay:10.37,2013-02-03 14:20:00,
2013-02-03 08:25:00,42.0,36.9,29.55,NW,315,0.0,0.0,82,0.00,CLR,,0.00,WeatherDisplay:10.37,2013-02-03 14:25:00,
2013-02-03 08:30:00,43.0,38.2,29.55,NW,315,2.3,2.3,83,0.00,CLR,,0.00,WeatherDisplay:10.37,2013-02-03 14:30:00,
2013-02-03 08:35:00,43.0,37.9,29.55,NW,315,3.5,3.5,82,0.00,CLR,,0.00,WeatherDisplay:10.37,2013-02-03 14:35:00,
2013-02-03 08:40:00,44.0,38.9,29.55,NW,315,3.5,3.5,82,0.00,CLR,,0.00,WeatherDisplay:10.37,2013-02-03 14:40:00,
2013-02-03 08:45:00,44.0,37.9,29.55,NW,315,3.5,3.5,79,0.00,CLR,,0.00,WeatherDisplay:10.37,2013-02-03 14:45:00,
2013-02-03 08:50:00,45.0,38.6,29.55,NW,315,2.3,2.3,78,0.00,CLR,,0.00,WeatherDisplay:10.37,2013-02-03 14:50:00,
2013-02-03 08:55:00,45.0,38.2,29.56,NW,315,2.3,2.3,77,0.00,CLR,,0.00,WeatherDisplay:10.37,2013-02-03 14:55:00,
2013-02-03 09:00:00,46.0,38.9,29.56,NW,315,3.5,3.5,76,0.00,CLR,,0.00,WeatherDisplay:10.37,2013-02-03 15:00:00,
2013-02-03 09:05:00,47.0,39.5,29.56,NW,315,3.5,3.5,75,0.00,CLR,,0.00,WeatherDisplay:10.37,2013-02-03 15:05:00,
2013-02-03 09:10:00,47.0,40.2,29.56,West,270,4.0,4.0,77,0.00,CLR,,0.00,WeatherDisplay:10.37,2013-02-03 15:10:00,
2013-02-03 09:15:00,47.0,39.5,29.57,WNW,292,3.5,3.5,75,0.00,CLR,,0.00,WeatherDisplay:10.37,2013-02-03 15:15:00,
2013-02-03 09:20:00,48.0,40.1,29.57,West,270,3.5,3.5,74,0.00,CLR,,0.00,WeatherDisplay:10.37,2013-02-03 15:20:00,
2013-02-03 09:25:00,48.0,40.1,29.57,West,270,2.3,2.3,74,0.00,CLR,,0.00,WeatherDisplay:10.37,2013-02-03 15:25:00,
2013-02-03 09:30:00,49.0,40.7,29.57,WSW,247,1.2,1.2,73,0.00,CLR,,0.00,WeatherDisplay:10.37,2013-02-03 15:30:00,
2013-02-03 09:35:00,50.0,41.3,29.57,West,270,4.0,4.0,72,0.00,CLR,,0.00,WeatherDisplay:10.37,2013-02-03 15:35:00,
2013-02-03 09:40:00,51.0,38.8,29.57,West,270,4.0,4.0,63,0.00,CLR,,0.00,WeatherDisplay:10.37,2013-02-03 15:40:00,
2013-02-03 09:45:00,51.0,38.4,29.57,West,270,5.0,5.0,62,0.00,CLR,,0.00,WeatherDisplay:10.37,2013-02-03 15:45:00,
2013-02-03 09:50:00,52.0,39.0,29.57,SW,225,3.5,3.5,61,0.00,CLR,,0.00,WeatherDisplay:10.37,2013-02-03 15:50:00,
2013-02-03 09:55:00,53.0,39.0,29.57,West,270,1.2,1.2,59,0.00,CLR,,0.00,WeatherDisplay:10.37,2013-02-03 15:55:00,
2013-02-03 10:00:00,54.0,39.1,29.58,West,270,3.0,3.0,57,0.00,CLR,,0.00,WeatherDisplay:10.37,2013-02-03 16:00:00,
2013-02-03 10:05:00,55.0,39.6,29.58,WSW,247,4.0,4.0,56,0.00,CLR,,0.00,WeatherDisplay:10.37,2013-02-03 16:05:00,
2013-02-03 10:10:00,56.0,39.1,29.58,West,270,3.5,3.5,53,0.00,CLR,,0.00,WeatherDisplay:10.37,2013-02-03 16:10:00,
2013-02-03 10:15:00,57.0,40.0,29.58,West,270,2.0,2.0,53,0.00,CLR,,0.00,WeatherDisplay:10.37,2013-02-03 16:15:00,
2013-02-03 10:20:00,59.0,41.4,29.58,SW,225,1.2,0.0,52,0.00,CLR,,0.00,WeatherDisplay:10.37,2013-02-03 16:20:00,
2013-02-03 10:25:00,60.0,39.7,29.58,West,270,3.5,3.5,47,0.00,CLR,,0.00,WeatherDisplay:10.37,2013-02-03 16:25:00,
2013-02-03 10:30:00,61.0,38.3,29.59,West,270,4.6,4.6,43,0.00,CLR,,0.00,WeatherDisplay:10.37,2013-02-03 16:30:00,
2013-02-03 10:35:00,61.0,39.5,29.59,NW,315,3.5,3.5,45,0.00,CLR,,0.00,WeatherDisplay:10.37,2013-02-03 16:35:00,
2013-02-03 10:40:00,62.0,39.2,29.59,West,270,2.3,2.3,43,0.00,CLR,,0.00,WeatherDisplay:10.37,2013-02-03 16:40:00,
2013-02-03 10:45:00,63.0,36.3,29.60,NW,315,6.0,6.0,37,0.00,CLR,,0.00,WeatherDisplay:10.37,2013-02-03 16:45:00,
2013-02-03 10:50:00,63.0,38.9,29.60,South,180,2.3,2.3,41,0.00,CLR,,0.00,WeatherDisplay:10.37,2013-02-03 16:50:00,
2013-02-03 10:55:00,64.0,37.2,29.60,NW,315,1.2,1.2,37,0.00,CLR,,0.00,WeatherDisplay:10.37,2013-02-03 16:55:00,
2013-02-03 11:00:00,65.0,36.7,29.59,SSW,202,4.6,4.6,35,0.00,CLR,,0.00,WeatherDisplay:10.37,2013-02-03 17:00:00,
2013-02-03 11:05:00,66.0,36.8,29.59,WNW,292,3.5,3.5,34,0.00,CLR,,0.00,WeatherDisplay:10.37,2013-02-03 17:05:00,
2013-02-03 11:10:00,65.0,38.1,29.59,WNW,292,0.0,0.0,37,0.00,CLR,,0.00,WeatherDisplay:10.37,2013-02-03 17:10:00,
2013-02-03 11:15:00,66.0,36.8,29.59,SSW,202,3.5,3.5,34,0.00,CLR,,0.00,WeatherDisplay:10.37,2013-02-03 17:15:00,
2013-02-03 11:20:00,67.0,36.9,29.59,South,180,4.6,4.6,33,0.00,CLR,,0.00,WeatherDisplay:10.37,2013-02-03 17:20:00,
2013-02-03 11:25:00,67.0,36.1,29.59,SSW,202,1.0,1.0,32,0.00,CLR,,0.00,WeatherDisplay:10.37,2013-02-03 17:25:00,
2013-02-03 11:30:00,68.0,37.0,29.59,SSW,202,3.5,3.5,32,0.00,CLR,,0.00,WeatherDisplay:10.37,2013-02-03 17:30:00,
2013-02-03 11:35:00,68.0,34.5,29.59,South,180,4.6,4.6,29,0.00,CLR,,0.00,WeatherDisplay:10.37,2013-02-03 17:35:00,
2013-02-03 11:40:00,69.0,35.4,29.59,SSE,157,5.8,5.8,29,0.00,CLR,,0.00,WeatherDisplay:10.37,2013-02-03 17:40:00,
2013-02-03 11:45:00,68.0,35.4,29.59,SSE,157,4.0,4.0,30,0.00,CLR,,0.00,WeatherDisplay:10.37,2013-02-03 17:45:00,
2013-02-03 11:50:00,68.0,34.5,29.58,SE,135,4.6,4.6,29,0.00,CLR,,0.00,WeatherDisplay:10.37,2013-02-03 17:50:00,
2013-02-03 11:55:00,67.0,33.7,29.58,East,90,4.6,4.6,29,0.00,CLR,,0.00,WeatherDisplay:10.37,2013-02-03 17:55:00,
2013-02-03 12:00:00,67.0,34.5,29.58,South,180,2.3,2.3,30,0.00,CLR,,0.00,WeatherDisplay:10.37,2013-02-03 18:00:00,
2013-02-03 12:05:00,68.0,31.8,29.58,South,180,5.0,5.0,26,0.00,CLR,,0.00,WeatherDisplay:10.37,2013-02-03 18:05:00,
2013-02-03 12:10:00,68.0,32.7,29.58,East,90,2.3,2.3,27,0.00,CLR,,0.00,WeatherDisplay:10.37,2013-02-03 18:10:00,
2013-02-03 12:15:00,69.0,33.6,29.57,South,180,5.0,5.0,27,0.00,CLR,,0.00,WeatherDisplay:10.37,2013-02-03 18:15:00,
2013-02-03 12:20:00,69.0,33.6,29.57,ENE,67,0.0,0.0,27,0.00,CLR,,0.00,WeatherDisplay:10.37,2013-02-03 18:20:00,
2013-02-03 12:25:00,70.0,33.5,29.57,South,180,3.5,0.0,26,0.00,CLR,,0.00,WeatherDisplay:10.37,2013-02-03 18:25:00,
2013-02-03 12:30:00,71.0,34.4,29.56,SE,135,3.5,3.5,26,0.00,CLR,,0.00,WeatherDisplay:10.37,2013-02-03 18:30:00,
2013-02-03 12:35:00,71.0,34.4,29.56,SSE,157,3.5,0.0,26,0.00,CLR,,0.00,WeatherDisplay:10.37,2013-02-03 18:35:00,
2013-02-03 12:40:00,70.0,32.5,29.57,SSE,157,3.5,3.5,25,0.00,CLR,,0.00,WeatherDisplay:10.37,2013-02-03 18:40:00,
2013-02-03 12:45:00,70.0,34.5,29.56,SW,225,0.0,0.0,27,0.00,CLR,,0.00,WeatherDisplay:10.37,2013-02-03 18:45:00,
2013-02-03 12:50:00,71.0,33.4,29.55,South,180,4.0,4.0,25,0.00,CLR,,0.00,WeatherDisplay:10.37,2013-02-03 18:50:00,
2013-02-03 12:55:00,71.0,32.4,29.55,SE,135,8.1,8.1,24,0.00,CLR,,0.00,WeatherDisplay:10.37,2013-02-03 18:55:00,
2013-02-03 13:00:00,70.0,32.5,29.55,East,90,5.8,5.8,25,0.00,CLR,,0.00,WeatherDisplay:10.37,2013-02-03 19:00:00,
2013-02-03 13:05:00,70.0,33.5,29.55,South,180,3.5,3.5,26,0.00,CLR,,0.00,WeatherDisplay:10.37,2013-02-03 19:05:00,
2013-02-03 13:10:00,70.0,32.5,29.54,SW,225,3.5,3.5,25,0.00,CLR,,0.00,WeatherDisplay:10.37,2013-02-03 19:10:00,
2013-02-03 13:15:00,70.0,32.5,29.54,SW,225,5.8,5.8,25,0.00,CLR,,0.00,WeatherDisplay:10.37,2013-02-03 19:15:00,
2013-02-03 13:20:00,71.0,32.4,29.54,South,180,5.8,5.8,24,0.00,CLR,,0.00,WeatherDisplay:10.37,2013-02-03 19:20:00,
2013-02-03 13:25:00,71.0,27.9,29.54,South,180,6.0,6.0,20,0.00,CLR,,0.00,WeatherDisplay:10.37,2013-02-03 19:25:00,
2013-02-03 13:30:00,70.0,29.4,29.54,South,180,6.0,6.0,22,0.00,CLR,,0.00,WeatherDisplay:10.37,2013-02-03 19:30:00,
2013-02-03 13:35:00,71.0,29.1,29.53,WNW,292,3.0,3.0,21,0.00,CLR,,0.00,WeatherDisplay:10.37,2013-02-03 19:35:00,
2013-02-03 13:40:00,71.0,30.2,29.53,South,180,3.5,3.5,22,0.00,CLR,,0.00,WeatherDisplay:10.37,2013-02-03 19:40:00,
2013-02-03 13:45:00,71.0,29.1,29.53,SE,135,6.9,6.9,21,0.00,CLR,,0.00,WeatherDisplay:10.37,2013-02-03 19:45:00,
2013-02-03 13:50:00,71.0,30.2,29.53,South,180,4.6,4.6,22,0.00,CLR,,0.00,WeatherDisplay:10.37,2013-02-03 19:50:00,
2013-02-03 13:55:00,71.0,30.2,29.52,SE,135,3.5,3.5,22,0.00,CLR,,0.00,WeatherDisplay:10.37,2013-02-03 19:55:00,
2013-02-03 14:01:00,71.0,30.2,29.52,SE,135,1.2,0.0,22,0.00,CLR,,0.00,WeatherDisplay:10.37,2013-02-03 20:01:00,
2013-02-03 14:06:00,71.0,29.1,29.52,SW,225,2.0,2.0,21,0.00,CLR,,0.00,WeatherDisplay:10.37,2013-02-03 20:06:00,
2013-02-03 14:11:00,71.0,29.1,29.52,SW,225,2.3,2.3,21,0.00,CLR,,0.00,WeatherDisplay:10.37,2013-02-03 20:11:00,
2013-02-03 14:16:00,70.0,31.5,29.52,South,180,8.1,8.1,24,0.00,CLR,,0.00,WeatherDisplay:10.37,2013-02-03 20:16:00,
2013-02-03 14:21:00,70.0,29.4,29.51,South,180,5.8,5.8,22,0.00,CLR,,0.00,WeatherDisplay:10.37,2013-02-03 20:21:00,
2013-02-03 14:26:00,70.0,29.4,29.50,East,90,6.9,6.9,22,0.00,CLR,,0.00,WeatherDisplay:10.37,2013-02-03 20:26:00,
2013-02-03 14:31:00,70.0,31.5,29.50,ESE,112,2.3,2.3,24,0.00,CLR,,0.00,WeatherDisplay:10.37,2013-02-03 20:31:00,
2013-02-03 14:36:00,70.0,31.5,29.50,SE,135,7.0,7.0,24,0.00,CLR,,0.00,WeatherDisplay:10.37,2013-02-03 20:36:00,
2013-02-03 14:41:00,70.0,30.5,29.50,SW,225,6.9,6.9,23,0.00,CLR,,0.00,WeatherDisplay:10.37,2013-02-03 20:41:00,
2013-02-03 14:46:00,70.0,30.5,29.50,SSW,202,6.9,6.9,23,0.00,CLR,,0.00,WeatherDisplay:10.37,2013-02-03 20:46:00,
2013-02-03 14:51:00,70.0,29.4,29.50,SE,135,5.8,5.8,22,0.00,CLR,,0.00,WeatherDisplay:10.37,2013-02-03 20:51:00,
2013-02-03 14:56:00,70.0,31.5,29.49,South,180,7.0,7.0,24,0.00,CLR,,0.00,WeatherDisplay:10.37,2013-02-03 20:56:00,
2013-02-03 15:01:00,70.0,30.5,29.49,ESE,112,1.2,1.2,23,0.00,CLR,,0.00,WeatherDisplay:10.37,2013-02-03 21:01:00,
2013-02-03 15:06:00,70.0,31.5,29.49,SE,135,3.5,3.5,24,0.00,CLR,,0.00,WeatherDisplay:10.37,2013-02-03 21:06:00,
2013-02-03 15:11:00,70.0,30.5,29.49,SE,135,10.0,10.0,23,0.00,CLR,,0.00,WeatherDisplay:10.37,2013-02-03 21:11:00,
2013-02-03 15:16:00,70.0,30.5,29.48,South,180,6.0,6.0,23,0.00,CLR,,0.00,WeatherDisplay:10.37,2013-02-03 21:16:00,
2013-02-03 15:21:00,70.0,29.4,29.48,SSE,157,9.2,9.2,22,0.00,CLR,,0.00,WeatherDisplay:10.37,2013-02-03 21:21:00,
2013-02-03 15:26:00,70.0,29.4,29.47,ESE,112,3.5,3.5,22,0.00,CLR,,0.00,WeatherDisplay:10.37,2013-02-03 21:26:00,
2013-02-03 15:31:00,70.0,29.4,29.47,South,180,9.2,9.2,22,0.00,CLR,,0.00,WeatherDisplay:10.37,2013-02-03 21:31:00,
2013-02-03 15:36:00,68.0,29.8,29.47,South,180,6.0,6.0,24,0.00,CLR,,0.00,WeatherDisplay:10.37,2013-02-03 21:36:00,
2013-02-03 15:41:00,67.0,29.0,29.46,South,180,6.9,6.9,24,0.00,CLR,,0.00,WeatherDisplay:10.37,2013-02-03 21:41:00,
2013-02-03 15:46:00,67.0,29.0,29.46,South,180,6.0,6.0,24,0.00,CLR,,0.00,WeatherDisplay:10.37,2013-02-03 21:46:00,
2013-02-03 15:51:00,67.0,29.0,29.45,South,180,6.9,6.9,24,0.00,CLR,,0.00,WeatherDisplay:10.37,2013-02-03 21:51:00,
2013-02-03 15:56:00,66.0,29.1,29.45,South,180,4.0,4.0,25,0.00,CLR,,0.00,WeatherDisplay:10.37,2013-02-03 21:56:00,
2013-02-03 16:01:00,66.0,28.1,29.45,SSE,157,6.9,6.9,24,0.00,CLR,,0.00,WeatherDisplay:10.37,2013-02-03 22:01:00,
2013-02-03 16:06:00,66.0,29.1,29.44,South,180,8.1,8.1,25,0.00,CLR,,0.00,WeatherDisplay:10.37,2013-02-03 22:06:00,
2013-02-03 16:11:00,65.0,29.2,29.44,South,180,6.9,6.9,26,0.00,CLR,,0.00,WeatherDisplay:10.37,2013-02-03 22:11:00,
2013-02-03 16:16:00,65.0,29.2,29.43,South,180,7.0,7.0,26,0.00,CLR,,0.00,WeatherDisplay:10.37,2013-02-03 22:16:00,
2013-02-03 16:21:00,65.0,29.2,29.43,SSE,157,8.0,8.0,26,0.00,CLR,,0.00,WeatherDisplay:10.37,2013-02-03 22:21:00,
2013-02-03 16:26:00,65.0,30.2,29.43,South,180,6.0,6.0,27,0.00,CLR,,0.00,WeatherDisplay:10.37,2013-02-03 22:26:00,
2013-02-03 16:31:00,65.0,30.2,29.43,South,180,6.9,6.9,27,0.00,CLR,,0.00,WeatherDisplay:10.37,2013-02-03 22:31:00,
2013-02-03 16:36:00,65.0,30.2,29.43,SSE,157,5.0,5.0,27,0.00,CLR,,0.00,WeatherDisplay:10.37,2013-02-03 22:36:00,
2013-02-03 16:41:00,65.0,30.2,29.42,South,180,8.1,8.1,27,0.00,CLR,,0.00,WeatherDisplay:10.37,2013-02-03 22:41:00,
2013-02-03 16:46:00,65.0,31.1,29.42,SSE,157,6.0,6.0,28,0.00,CLR,,0.00,WeatherDisplay:10.37,2013-02-03 22:46:00,
2013-02-03 16:51:00,64.0,30.2,29.41,South,180,9.2,9.2,28,0.00,CLR,,0.00,WeatherDisplay:10.37,2013-02-03 22:51:00,
2013-02-03 16:56:00,64.0,29.3,29.41,South,180,7.0,7.0,27,0.00,CLR,,0.00,WeatherDisplay:10.37,2013-02-03 22:56:00,
2013-02-03 17:01:00,64.0,29.3,29.41,SE,135,3.5,3.5,27,0.00,CLR,,0.00,WeatherDisplay:10.37,2013-02-03 23:01:00,
2013-02-03 17:06:00,63.0,28.5,29.41,SSW,202,5.0,5.0,27,0.00,CLR,,0.00,WeatherDisplay:10.37,2013-02-03 23:06:00,
2013-02-03 17:11:00,62.0,28.5,29.40,South,180,6.9,6.9,28,0.00,CLR,,0.00,WeatherDisplay:10.37,2013-02-03 23:11:00,
2013-02-03 17:16:00,62.0,28.5,29.40,South,180,5.8,5.8,28,0.00,CLR,,0.00,WeatherDisplay:10.37,2013-02-03 23:16:00,
2013-02-03 17:21:00,61.0,28.5,29.40,South,180,5.8,5.8,29,0.00,CLR,,0.00,WeatherDisplay:10.37,2013-02-03 23:21:00,
2013-02-03 17:26:00,61.0,28.5,29.39,South,180,5.8,5.8,29,0.00,CLR,,0.00,WeatherDisplay:10.37,2013-02-03 23:26:00,
2013-02-03 17:31:00,60.0,27.6,29.39,South,180,3.5,3.7,29,0.00,CLR,,0.00,WeatherDisplay:10.37,2013-02-03 23:31:00,
2013-02-03 17:36:00,60.0,28.4,29.39,South,180,4.0,4.0,30,0.00,CLR,,0.00,WeatherDisplay:10.37,2013-02-03 23:36:00,
2013-02-03 17:41:00,60.0,29.2,29.39,South,180,3.5,3.5,31,0.00,CLR,,0.00,WeatherDisplay:10.37,2013-02-03 23:41:00,
2013-02-03 17:46:00,59.0,28.4,29.39,South,180,1.2,0.0,31,0.00,CLR,,0.00,WeatherDisplay:10.37,2013-02-03 23:46:00,
2013-02-03 17:51:00,59.0,29.2,29.38,South,180,3.5,3.5,32,0.00,CLR,,0.00,WeatherDisplay:10.37,2013-02-03 23:51:00,
2013-02-03 17:56:00,58.0,29.0,29.38,South,180,3.5,3.5,33,0.00,CLR,,0.00,WeatherDisplay:10.37,2013-02-03 23:56:00,
2013-02-03 18:01:00,58.0,29.0,29.38,South,180,2.3,2.3,33,0.00,CLR,,0.00,WeatherDisplay:10.37,2013-02-04 00:01:00,
2013-02-03 18:06:00,57.0,28.1,29.38,South,180,0.0,0.0,33,0.00,CLR,,0.00,WeatherDisplay:10.37,2013-02-04 00:06:00,
2013-02-03 18:11:00,57.0,28.9,29.38,South,180,1.2,1.2,34,0.00,CLR,,0.00,WeatherDisplay:10.37,2013-02-04 00:11:00,
2013-02-03 18:16:00,56.0,28.0,29.37,South,180,1.2,1.2,34,0.00,CLR,,0.00,WeatherDisplay:10.37,2013-02-04 00:16:00,
2013-02-03 18:21:00,56.0,28.7,29.37,South,180,0.0,0.0,35,0.00,CLR,,0.00,WeatherDisplay:10.37,2013-02-04 00:21:00,
2013-02-03 18:26:00,56.0,29.4,29.37,South,180,0.0,0.0,36,0.00,CLR,,0.00,WeatherDisplay:10.37,2013-02-04 00:26:00,
2013-02-03 18:31:00,56.0,29.4,29.37,South,180,2.3,0.0,36,0.00,CLR,,0.00,WeatherDisplay:10.37,2013-02-04 00:31:00,
2013-02-03 18:36:00,56.0,29.4,29.37,South,180,1.0,1.0,36,0.00,CLR,,0.00,WeatherDisplay:10.37,2013-02-04 00:36:00,
2013-02-03 18:41:00,56.0,29.4,29.37,South,180,1.2,0.0,36,0.00,CLR,,0.00,WeatherDisplay:10.37,2013-02-04 00:41:00,
2013-02-03 18:46:00,55.0,28.5,29.37,South,180,0.0,0.0,36,0.00,CLR,,0.00,WeatherDisplay:10.37,2013-02-04 00:46:00,
2013-02-03 18:51:00,55.0,29.2,29.37,South,180,2.3,0.0,37,0.00,CLR,,0.00,WeatherDisplay:10.37,2013-02-04 00:51:00,
2013-02-03 18:56:00,55.0,29.2,29.37,South,180,0.0,0.0,37,0.00,CLR,,0.00,WeatherDisplay:10.37,2013-02-04 00:56:00,
2013-02-03 19:01:00,55.0,29.8,29.37,South,180,1.2,0.0,38,0.00,CLR,,0.00,WeatherDisplay:10.37,2013-02-04 01:01:00,
2013-02-03 19:07:00,55.0,29.8,29.37,South,180,1.2,1.2,38,0.00,CLR,,0.00,WeatherDisplay:10.37,2013-02-04 01:07:00,
2013-02-03 19:12:00,55.0,29.8,29.37,South,180,1.2,1.2,38,0.00,CLR,,0.00,WeatherDisplay:10.37,2013-02-04 01:12:00,
2013-02-03 19:17:00,55.0,29.8,29.37,South,180,1.2,1.2,38,0.00,CLR,,0.00,WeatherDisplay:10.37,2013-02-04 01:17:00,
2013-02-03 19:22:00,55.0,29.8,29.37,South,180,3.5,3.5,38,0.00,CLR,,0.00,WeatherDisplay:10.37,2013-02-04 01:22:00,
2013-02-03 19:27:00,55.0,29.8,29.37,South,180,3.5,3.5,38,0.00,CLR,,0.00,WeatherDisplay:10.37,2013-02-04 01:27:00,
2013-02-03 19:32:00,55.0,29.8,29.36,South,180,3.5,3.5,38,0.00,CLR,,0.00,WeatherDisplay:10.37,2013-02-04 01:32:00,
2013-02-03 19:37:00,55.0,30.5,29.36,South,180,3.5,0.0,39,0.00,CLR,,0.00,WeatherDisplay:10.37,2013-02-04 01:37:00,
2013-02-03 19:42:00,55.0,30.5,29.36,South,180,1.2,1.2,39,0.00,CLR,,0.00,WeatherDisplay:10.37,2013-02-04 01:42:00,
2013-02-03 19:47:00,55.0,30.5,29.36,SSE,157,2.3,2.3,39,0.00,CLR,,0.00,WeatherDisplay:10.37,2013-02-04 01:47:00,
2013-02-03 19:52:00,55.0,31.1,29.35,SSE,157,2.3,2.3,40,0.00,CLR,,0.00,WeatherDisplay:10.37,2013-02-04 01:52:00,
2013-02-03 19:57:00,55.0,31.1,29.35,SSE,157,1.2,1.2,40,0.00,CLR,,0.00,WeatherDisplay:10.37,2013-02-04 01:57:00,
2013-02-03 20:02:00,54.0,30.8,29.35,SSE,157,1.2,1.2,41,0.00,CLR,,0.00,WeatherDisplay:10.37,2013-02-04 02:02:00,
2013-02-03 20:07:00,54.0,30.8,29.35,South,180,3.5,3.5,41,0.00,CLR,,0.00,WeatherDisplay:10.37,2013-02-04 02:07:00,
2013-02-03 20:12:00,54.0,30.8,29.35,South,180,1.2,1.2,41,0.00,CLR,,0.00,WeatherDisplay:10.37,2013-02-04 02:12:00,
2013-02-03 20:17:00,54.0,31.4,29.35,South,180,2.3,2.3,42,0.00,CLR,,0.00,WeatherDisplay:10.37,2013-02-04 02:17:00,
2013-02-03 20:22:00,54.0,31.4,29.35,South,180,2.3,2.3,42,0.00,CLR,,0.00,WeatherDisplay:10.37,2013-02-04 02:22:00,
2013-02-03 20:27:00,54.0,31.4,29.35,South,180,2.3,2.3,42,0.00,CLR,,0.00,WeatherDisplay:10.37,2013-02-04 02:27:00,
2013-02-03 20:32:00,54.0,31.4,29.35,SSE,157,2.3,2.3,42,0.00,CLR,,0.00,WeatherDisplay:10.37,2013-02-04 02:32:00,
2013-02-03 20:37:00,54.0,31.4,29.35,SSE,157,3.5,4.0,42,0.00,CLR,,0.00,WeatherDisplay:10.37,2013-02-04 02:37:00,
2013-02-03 20:42:00,54.0,32.0,29.35,South,180,2.3,2.3,43,0.00,CLR,,0.00,WeatherDisplay:10.37,2013-02-04 02:42:00,
2013-02-03 20:47:00,54.0,32.0,29.35,South,180,1.2,1.2,43,0.00,CLR,,0.00,WeatherDisplay:10.37,2013-02-04 02:47:00,
2013-02-03 20:52:00,54.0,32.0,29.35,South,180,0.0,0.0,43,0.00,CLR,,0.00,WeatherDisplay:10.37,2013-02-04 02:52:00,
2013-02-03 20:57:00,53.0,31.6,29.34,South,180,3.5,4.0,44,0.00,CLR,,0.00,WeatherDisplay:10.37,2013-02-04 02:57:00,
2013-02-03 21:02:00,53.0,31.6,29.34,South,180,0.0,0.0,44,0.00,CLR,,0.00,WeatherDisplay:10.37,2013-02-04 03:02:00,
2013-02-03 21:07:00,54.0,33.1,29.33,South,180,3.5,3.5,45,0.00,CLR,,0.00,WeatherDisplay:10.37,2013-02-04 03:07:00,
2013-02-03 21:12:00,54.0,33.7,29.33,SSE,157,1.2,1.2,46,0.00,CLR,,0.00,WeatherDisplay:10.37,2013-02-04 03:12:00,
2013-02-03 21:17:00,53.0,32.8,29.33,SSE,157,6.0,6.0,46,0.00,CLR,,0.00,WeatherDisplay:10.37,2013-02-04 03:17:00,
2013-02-03 21:22:00,54.0,33.7,29.33,SSE,157,3.5,3.5,46,0.00,CLR,,0.00,WeatherDisplay:10.37,2013-02-04 03:22:00,
2013-02-03 21:27:00,54.0,33.7,29.33,SSE,157,3.5,3.5,46,0.00,CLR,,0.00,WeatherDisplay:10.37,2013-02-04 03:27:00,
2013-02-03 21:32:00,54.0,33.7,29.33,SSE,157,4.6,4.6,46,0.00,CLR,,0.00,WeatherDisplay:10.37,2013-02-04 03:32:00,
2013-02-03 21:37:00,54.0,34.2,29.33,SSE,157,4.6,4.6,47,0.00,CLR,,0.00,WeatherDisplay:10.37,2013-02-04 03:37:00,
2013-02-03 21:42:00,54.0,34.2,29.33,SSE,157,2.3,2.3,47,0.00,CLR,,0.00,WeatherDisplay:10.37,2013-02-04 03:42:00,
2013-02-03 21:47:00,54.0,34.2,29.32,SSE,157,3.5,3.5,47,0.00,CLR,,0.00,WeatherDisplay:10.37,2013-02-04 03:47:00,
2013-02-03 21:52:00,54.0,34.2,29.32,South,180,3.5,3.5,47,0.00,CLR,,0.00,WeatherDisplay:10.37,2013-02-04 03:52:00,
2013-02-03 21:57:00,53.0,33.8,29.32,South,180,3.0,3.0,48,0.00,CLR,,0.00,WeatherDisplay:10.37,2013-02-04 03:57:00,
2013-02-03 22:02:00,53.0,33.8,29.32,SSE,157,4.6,4.6,48,0.00,CLR,,0.00,WeatherDisplay:10.37,2013-02-04 04:02:00,
2013-02-03 22:07:00,53.0,33.8,29.32,South,180,6.0,6.0,48,0.00,CLR,,0.00,WeatherDisplay:10.37,2013-02-04 04:07:00,
2013-02-03 22:12:00,53.0,33.8,29.31,SE,135,5.0,5.0,48,0.00,CLR,,0.00,WeatherDisplay:10.37,2013-02-04 04:12:00,
2013-02-03 22:17:00,53.0,33.8,29.31,South,180,4.6,4.6,48,0.00,CLR,,0.00,WeatherDisplay:10.37,2013-02-04 04:17:00,
2013-02-03 22:22:00,53.0,33.8,29.31,South,180,4.6,4.6,48,0.00,CLR,,0.00,WeatherDisplay:10.37,2013-02-04 04:22:00,
2013-02-03 22:27:00,53.0,33.8,29.31,SSE,157,4.0,4.0,48,0.00,CLR,,0.00,WeatherDisplay:10.37,2013-02-04 04:27:00,
2013-02-03 22:32:00,53.0,33.8,29.31,South,180,5.0,5.0,48,0.00,CLR,,0.00,WeatherDisplay:10.37,2013-02-04 04:32:00,
2013-02-03 22:37:00,53.0,33.8,29.31,South,180,3.5,3.5,48,0.00,CLR,,0.00,WeatherDisplay:10.37,2013-02-04 04:37:00,
2013-02-03 22:42:00,53.0,33.8,29.30,South,180,3.5,3.6,48,0.00,CLR,,0.00,WeatherDisplay:10.37,2013-02-04 04:42:00,
2013-02-03 22:47:00,53.0,33.8,29.30,South,180,3.0,3.0,48,0.00,CLR,,0.00,WeatherDisplay:10.37,2013-02-04 04:47:00,
2013-02-03 22:52:00,53.0,33.8,29.29,South,180,5.0,5.0,48,0.00,CLR,,0.00,WeatherDisplay:10.37,2013-02-04 04:52:00,
2013-02-03 22:57:00,53.0,34.3,29.29,South,180,4.0,4.0,49,0.00,CLR,,0.00,WeatherDisplay:10.37,2013-02-04 04:57:00,
2013-02-03 23:01:00,53.0,33.8,29.29,South,180,5.8,5.8,48,0.00,CLR,,0.00,WeatherDisplay:10.37,2013-02-04 05:01:00,
2013-02-03 23:02:00,53.0,33.8,29.29,South,180,5.0,5.0,48,0.00,CLR,,0.00,WeatherDisplay:10.37,2013-02-04 05:02:00,
2013-02-03 23:03:00,53.0,33.8,29.29,South,180,5.0,5.0,48,0.00,CLR,,0.00,WeatherDisplay:10.37,2013-02-04 05:03:00,
2013-02-03 23:08:00,53.0,33.8,29.29,SSE,157,2.3,2.3,48,0.00,CLR,,0.00,WeatherDisplay:10.37,2013-02-04 05:08:00,
2013-02-03 23:13:00,54.0,34.2,29.29,South,180,5.0,5.0,47,0.00,CLR,,0.00,WeatherDisplay:10.37,2013-02-04 05:13:00,
2013-02-03 23:18:00,54.0,34.7,29.29,South,180,3.5,3.5,48,0.00,CLR,,0.00,WeatherDisplay:10.37,2013-02-04 05:18:00,
2013-02-03 23:23:00,54.0,34.7,29.29,SSE,157,3.5,3.5,48,0.00,CLR,,0.00,WeatherDisplay:10.37,2013-02-04 05:23:00,
2013-02-03 23:28:00,54.0,34.7,29.29,SSE,157,4.0,4.0,48,0.00,CLR,,0.00,WeatherDisplay:10.37,2013-02-04 05:28:00,
2013-02-03 23:33:00,54.0,34.7,29.29,SE,135,4.6,4.6,48,0.00,CLR,,0.00,WeatherDisplay:10.37,2013-02-04 05:33:00,
2013-02-03 23:38:00,54.0,34.7,29.28,South,180,8.1,8.1,48,0.00,CLR,,0.00,WeatherDisplay:10.37,2013-02-04 05:38:00,
2013-02-03 23:43:00,54.0,34.7,29.28,South,180,3.5,4.0,48,0.00,CLR,,0.00,WeatherDisplay:10.37,2013-02-04 05:43:00,
2013-02-03 23:48:00,54.0,34.7,29.28,South,180,4.6,5.0,48,0.00,CLR,,0.00,WeatherDisplay:10.37,2013-02-04 05:48:00,
2013-02-03 23:53:00,54.0,35.3,29.28,South,180,6.0,6.0,49,0.00,CLR,,0.00,WeatherDisplay:10.37,2013-02-04 05:53:00,
2013-02-03 23:58:00,54.0,34.7,29.27,SSE,157,7.0,7.0,48,0.00,CLR,,0.00,WeatherDisplay:10.37,2013-02-04 05:58:00,